Time;durP1;ratioP1;P1;durP2;ratioP2;P2;SDS_P1;SDS_P2;PMS_P1;PMS_P2;Temp;Humidity;BMP_temperature;BMP_pressure;BME280_temperature;BME280_humidity;BME280_pressure;Samples;Min_cycle;Max_cycle;Signal;HPM_P1;HPM_P2
2021/12/05 00:20:31;;;;;;;;;;;4.20;99.90;;;;;;4967348;28;20033;-89
2021/12/05 00:22:55;;;;;;;;;;;4.20;99.90;;;;;;4971578;28;19930;-87
2021/12/05 00:25:27;;;;;;;;;;;4.20;99.90;;;;;;4974259;28;19926;-89
2021/12/05 00:28:24;;;;;;;;;;;4.20;99.90;;;;;;4973926;28;19926;-89
2021/12/05 00:39:10;;;;;;;;;;;4.20;99.90;;;;;;4966999;28;20440;-83
2021/12/05 01:16:18;;;;;;;;;;;4.10;99.90;;;;;;4986498;28;20404;-84
2021/12/05 01:18:44;;;;;;;;;;;4.10;99.90;;;;;;4985167;28;19953;-84
2021/12/05 01:21:13;;;;;;;;;;;4.10;99.90;;;;;;4985929;28;19934;-85
2021/12/05 01:26:13;;;;;;;;;;;4.10;99.90;;;;;;4983657;28;19930;-85
2021/12/05 01:29:09;;;;;;;;;;;4.00;99.90;;;;;;4987499;28;20405;-84
2021/12/05 01:36:45;;;;;;;;;;;4.00;99.90;;;;;;4988260;28;19925;-84
2021/12/05 01:52:56;;;;;;;;;;;3.90;99.90;;;;;;4983532;28;19976;-84
2021/12/05 02:01:11;;;;;;;;;;;3.90;99.90;;;;;;5004161;28;19933;-82
2021/12/05 02:45:35;;;;;;;;;;;3.70;99.90;;;;;;4995467;28;19930;-84
2021/12/05 02:48:20;;;;;;;;;;;3.70;99.90;;;;;;4993272;28;20317;-83
2021/12/05 02:51:04;;;;;;;;;;;3.50;99.90;;;;;;4992009;28;19925;-83
2021/12/05 02:53:52;;;;;;;;;;;2.00;99.90;;;;;;4997766;28;19979;-82
2021/12/05 02:56:23;;;;;;;;;;;2.90;99.90;;;;;;4997411;28;19932;-83
2021/12/05 03:02:14;;;;;;;;;;;5.80;99.90;;;;;;5002451;28;19948;-83
2021/12/05 03:04:43;;;;;;;;;;;3.70;99.90;;;;;;5000044;28;20015;-84
2021/12/05 03:07:46;;;;;;;;;;;4.10;99.90;;;;;;4997797;28;19936;-84
2021/12/05 03:10:28;;;;;;;;;;;3.70;99.90;;;;;;4987517;28;19929;-84
2021/12/05 03:12:54;;;;;;;;;;;3.70;99.90;;;;;;4993096;28;19934;-84
2021/12/05 03:15:32;;;;;;;;;;;3.80;99.90;;;;;;4991875;28;19932;-84
2021/12/05 03:18:13;;;;;;;;;;;3.80;99.90;;;;;;4992641;23;19926;-84
2021/12/05 03:20:39;;;;;;;;;;;3.10;99.90;;;;;;4984048;28;20032;-84
2021/12/05 03:23:20;;;;;;;;;;;3.80;99.90;;;;;;4985724;28;19932;-84
2021/12/05 03:25:55;;;;;;;;;;;3.80;99.90;;;;;;4998782;28;19933;-85
2021/12/05 03:28:42;;;;;;;;;;;3.80;99.90;;;;;;4957186;28;19933;-84
2021/12/05 03:31:08;;;;;;;;;;;3.80;99.90;;;;;;4991922;28;20605;-84
2021/12/05 03:33:49;;;;;;;;;;;5.80;99.90;;;;;;4974265;28;19949;-84
2021/12/05 03:36:15;;;;;;;;;;;3.70;99.90;;;;;;4974087;28;20019;-88
2021/12/05 03:38:41;;;;;;;;;;;3.70;99.90;;;;;;4980839;28;19988;-84
2021/12/05 03:41:22;;;;;;;;;;;3.80;99.90;;;;;;4982173;28;20838;-83
2021/12/05 03:43:54;;;;;;;;;;;2.70;99.90;;;;;;4993595;28;19957;-84
2021/12/05 03:46:29;;;;;;;;;;;4.90;99.90;;;;;;4976359;28;19929;-84
2021/12/05 03:49:12;;;;;;;;;;;5.00;99.90;;;;;;4992780;28;19921;-84
2021/12/05 03:51:55;;;;;;;;;;;3.80;99.90;;;;;;4973618;28;19961;-84
2021/12/05 03:54:30;;;;;;;;;;;3.80;99.90;;;;;;4974672;28;19968;-84
2021/12/05 03:56:56;;;;;;;;;;;2.90;99.90;;;;;;4975332;28;20062;-84
2021/12/05 03:59:32;;;;;;;;;;;3.80;99.90;;;;;;4974851;28;19976;-84
2021/12/05 04:02:13;;;;;;;;;;;3.80;99.90;;;;;;4973668;28;20349;-84
2021/12/05 04:04:40;;;;;;;;;;;3.80;99.90;;;;;;4973853;28;19925;-84
2021/12/05 04:07:06;;;;;;;;;;;4.40;99.90;;;;;;4979688;28;19954;-85
2021/12/05 04:09:48;;;;;;;;;;;3.80;99.90;;;;;;4974725;28;20436;-84
2021/12/05 04:12:20;;;;;;;;;;;3.80;99.90;;;;;;4974625;28;19983;-84
2021/12/05 04:14:48;;;;;;;;;;;2.60;99.90;;;;;;4975869;28;19929;-84
2021/12/05 04:17:14;;;;;;;;;;;4.80;99.90;;;;;;4969979;28;19948;-84
2021/12/05 04:19:58;;;;;;;;;;;3.70;99.90;;;;;;4992605;28;20609;-84
2021/12/05 04:22:24;;;;;;;;;;;3.70;99.90;;;;;;5012481;28;19934;-85
2021/12/05 04:24:49;;;;;;;;;;;3.70;99.90;;;;;;4970755;28;20117;-84
2021/12/05 04:27:15;;;;;;;;;;;4.80;99.90;;;;;;4972744;28;20368;-84
2021/12/05 04:33:06;;;;;;;;;;;3.40;99.90;;;;;;4994100;28;20428;-83
2021/12/05 04:35:32;;;;;;;;;;;2.60;99.90;;;;;;4970841;28;19926;-84
2021/12/05 04:37:57;;;;;;;;;;;3.60;99.90;;;;;;4971826;28;20428;-82
2021/12/05 04:40:33;;;;;;;;;;;3.70;99.90;;;;;;4969678;28;19926;-83
2021/12/05 04:43:05;;;;;;;;;;;2.90;99.90;;;;;;4976204;28;19934;-84
2021/12/05 04:45:34;;;;;;;;;;;3.60;99.90;;;;;;4973191;28;19926;-84
2021/12/05 04:48:00;;;;;;;;;;;3.70;99.90;;;;;;4973486;28;19926;-84
2021/12/05 04:50:26;;;;;;;;;;;3.60;99.90;;;;;;4972683;28;19925;-83
2021/12/05 04:52:54;;;;;;;;;;;3.60;99.90;;;;;;4975429;28;20111;-84
2021/12/05 04:55:19;;;;;;;;;;;3.60;99.90;;;;;;4976237;28;19925;-84
2021/12/05 04:57:45;;;;;;;;;;;3.70;99.90;;;;;;4972122;28;19932;-84
2021/12/05 05:00:13;;;;;;;;;;;3.60;99.90;;;;;;4988671;28;19925;-85
2021/12/05 05:02:39;;;;;;;;;;;3.60;99.90;;;;;;4979545;28;20005;-85
2021/12/05 05:05:05;;;;;;;;;;;3.60;99.90;;;;;;4974466;28;19933;-84
2021/12/05 05:07:31;;;;;;;;;;;3.60;99.90;;;;;;4976275;28;20006;-86
2021/12/05 05:09:59;;;;;;;;;;;3.60;99.90;;;;;;4972962;28;19984;-86
2021/12/05 05:12:24;;;;;;;;;;;3.60;99.90;;;;;;4990843;28;19934;-85
2021/12/05 05:14:52;;;;;;;;;;;3.80;99.90;;;;;;4977011;28;19934;-84
2021/12/05 05:17:18;;;;;;;;;;;3.60;99.90;;;;;;4987179;28;20252;-85
2021/12/05 05:19:55;;;;;;;;;;;5.00;99.90;;;;;;4982922;28;19925;-84
2021/12/05 05:29:04;;;;;;;;;;;3.40;99.90;;;;;;4975201;28;20317;-84
2021/12/05 05:47:52;;;;;;;;;;;3.60;99.90;;;;;;4991014;28;20254;-85
2021/12/05 05:50:19;;;;;;;;;;;3.60;99.90;;;;;;4971640;28;19932;-84
2021/12/05 05:52:44;;;;;;;;;;;3.60;99.90;;;;;;4975072;28;19968;-83
2021/12/05 05:55:11;;;;;;;;;;;3.60;99.90;;;;;;4977736;28;20039;-85
2021/12/05 06:00:14;;;;;;;;;;;3.60;99.90;;;;;;4974244;28;20025;-85
2021/12/05 06:05:24;;;;;;;;;;;3.60;99.90;;;;;;4988051;28;19926;-84
2021/12/05 06:07:50;;;;;;;;;;;3.60;99.90;;;;;;4976893;28;19933;-85
2021/12/05 06:10:23;;;;;;;;;;;3.60;99.90;;;;;;4987302;28;19969;-87
2021/12/05 06:12:49;;;;;;;;;;;3.60;99.90;;;;;;4975110;28;19926;-87
2021/12/05 06:15:16;;;;;;;;;;;3.60;99.90;;;;;;4971510;28;20028;-85
2021/12/05 06:17:41;;;;;;;;;;;3.50;99.90;;;;;;4975155;28;19932;-86
2021/12/05 06:20:08;;;;;;;;;;;3.50;99.90;;;;;;4974343;28;19934;-86
2021/12/05 06:22:34;;;;;;;;;;;3.60;99.90;;;;;;4980147;28;19934;-86
2021/12/05 06:25:00;;;;;;;;;;;3.50;99.90;;;;;;4983073;28;19949;-86
2021/12/05 06:27:26;;;;;;;;;;;3.50;99.90;;;;;;4973040;28;19926;-85
2021/12/05 06:30:00;;;;;;;;;;;3.50;99.90;;;;;;4972551;28;19922;-85
2021/12/05 06:38:52;;;;;;;;;;;3.90;99.90;;;;;;4967898;28;20336;-86
2021/12/05 06:45:56;;;;;;;;;;;3.40;99.90;;;;;;4985951;28;19929;-86
2021/12/05 06:48:29;;;;;;;;;;;3.40;99.90;;;;;;4988836;28;19922;-85
2021/12/05 06:50:54;;;;;;;;;;;3.40;99.90;;;;;;4969197;28;19933;-86
2021/12/05 06:53:20;;;;;;;;;;;3.40;99.90;;;;;;4971879;28;20027;-86
2021/12/05 06:55:45;;;;;;;;;;;3.40;99.90;;;;;;4989073;28;19941;-86
2021/12/05 06:58:11;;;;;;;;;;;3.40;99.90;;;;;;4995262;28;20385;-87
2021/12/05 07:00:36;;;;;;;;;;;3.40;99.90;;;;;;4995063;28;19937;-86
2021/12/05 07:03:02;;;;;;;;;;;3.40;99.90;;;;;;4975125;28;19926;-87
2021/12/05 07:05:38;;;;;;;;;;;3.30;99.90;;;;;;4966150;28;20301;-84
2021/12/05 07:08:05;;;;;;;;;;;3.30;99.90;;;;;;4973951;28;19944;-86
2021/12/05 07:10:36;;;;;;;;;;;3.30;99.90;;;;;;4992382;28;20071;-85
2021/12/05 07:15:40;;;;;;;;;;;3.30;99.90;;;;;;4993557;28;20417;-86
2021/12/05 07:26:14;;;;;;;;;;;3.20;99.90;;;;;;4987256;28;19950;-88
2021/12/05 07:42:24;;;;;;;;;;;3.20;99.90;;;;;;4989832;28;19951;-85
2021/12/05 07:44:55;;;;;;;;;;;3.20;99.90;;;;;;4973272;28;19925;-85
2021/12/05 07:47:29;;;;;;;;;;;3.20;99.90;;;;;;4992662;28;19932;-86
2021/12/05 07:49:56;;;;;;;;;;;3.20;99.90;;;;;;4977753;28;19948;-86
2021/12/05 07:52:25;;;;;;;;;;;3.20;99.90;;;;;;4975584;28;19937;-85
2021/12/05 07:54:58;;;;;;;;;;;3.10;99.90;;;;;;4977322;28;19937;-86
2021/12/05 07:57:30;;;;;;;;;;;3.20;99.90;;;;;;4997015;28;19932;-85
2021/12/05 08:00:11;;;;;;;;;;;3.20;99.90;;;;;;5011693;28;19968;-86
2021/12/05 08:16:26;;;;;;;;;;;3.20;99.90;;;;;;4975190;28;20414;-88
2021/12/05 08:18:51;;;;;;;;;;;4.40;99.90;;;;;;4988325;28;19930;-87
2021/12/05 08:21:17;;;;;;;;;;;3.20;99.90;;;;;;4986381;28;19926;-86
2021/12/05 08:23:45;;;;;;;;;;;3.20;99.90;;;;;;4980602;28;20021;-86
2021/12/05 08:26:16;;;;;;;;;;;3.20;99.90;;;;;;4974316;28;19989;-87
2021/12/05 09:20:42;;;;;;;;;;;3.60;99.90;;;;;;4988573;28;19933;-86
2021/12/05 09:30:48;;;;;;;;;;;3.60;99.90;;;;;;4954942;28;19938;-87
2021/12/05 10:09:27;;;;;;;;;;;4.20;99.90;;;;;;4963207;28;19926;-87
2021/12/05 10:12:14;;;;;;;;;;;3.60;99.90;;;;;;4970792;28;19944;-87
2021/12/05 10:14:55;;;;;;;;;;;3.60;99.90;;;;;;4973376;28;19946;-87
2021/12/05 10:17:47;;;;;;;;;;;3.60;99.90;;;;;;4973162;28;20416;-87
2021/12/05 10:34:56;;;;;;;;;;;3.60;99.90;;;;;;4991584;28;19926;-88
2021/12/05 10:37:23;;;;;;;;;;;3.60;99.90;;;;;;4982904;28;19970;-89
2021/12/05 10:40:02;;;;;;;;;;;3.60;99.90;;;;;;4958004;28;20031;-89
2021/12/05 10:42:42;;;;;;;;;;;4.60;99.90;;;;;;4978171;28;19937;-90
2021/12/05 10:45:10;;;;;;;;;;;3.70;99.90;;;;;;4973395;28;20314;-89
2021/12/05 10:47:45;;;;;;;;;;;3.70;99.90;;;;;;4975172;28;20060;-88
2021/12/05 10:50:27;;;;;;;;;;;3.70;99.90;;;;;;4975018;28;19930;-88
2021/12/05 10:53:11;;;;;;;;;;;3.70;99.90;;;;;;4974993;28;19980;-89
2021/12/05 10:55:36;;;;;;;;;;;3.70;99.90;;;;;;4974728;28;19969;-89
2021/12/05 10:58:03;;;;;;;;;;;3.70;99.90;;;;;;4974515;28;20390;-88
2021/12/05 11:00:29;;;;;;;;;;;3.80;99.90;;;;;;4977951;28;19941;-89
2021/12/05 11:03:12;;;;;;;;;;;3.70;99.90;;;;;;4976718;28;20037;-88
2021/12/05 11:05:39;;;;;;;;;;;3.80;99.90;;;;;;4978831;28;19929;-88
2021/12/05 11:08:25;;;;;;;;;;;3.80;99.90;;;;;;4974252;28;19926;-89
2021/12/05 11:10:50;;;;;;;;;;;3.80;99.90;;;;;;4973849;28;20017;-90
2021/12/05 11:13:26;;;;;;;;;;;3.80;99.90;;;;;;4973594;28;20017;-89
2021/12/05 11:15:52;;;;;;;;;;;3.80;99.90;;;;;;4972871;28;19953;-89
2021/12/05 11:18:36;;;;;;;;;;;3.90;99.90;;;;;;4973228;28;20016;-87
2021/12/05 11:21:22;;;;;;;;;;;3.90;99.90;;;;;;4970126;28;19981;-89
2021/12/05 11:24:02;;;;;;;;;;;3.90;99.90;;;;;;4973805;28;19937;-88
2021/12/05 11:26:29;;;;;;;;;;;3.90;99.90;;;;;;4973882;28;19985;-88
2021/12/05 11:28:55;;;;;;;;;;;4.00;99.90;;;;;;4973809;28;20026;-89
2021/12/05 11:31:28;;;;;;;;;;;4.00;99.90;;;;;;4983646;28;19967;-89
2021/12/05 11:33:55;;;;;;;;;;;4.00;99.90;;;;;;5011109;28;19925;-88
2021/12/05 11:36:25;;;;;;;;;;;4.00;99.90;;;;;;4977699;28;19972;-86
2021/12/05 11:38:51;;;;;;;;;;;4.10;99.90;;;;;;4971812;28;19929;-85
2021/12/05 11:41:20;;;;;;;;;;;4.10;99.90;;;;;;4982270;28;20070;-87
2021/12/05 11:43:57;;;;;;;;;;;4.10;99.90;;;;;;4971505;28;20024;-88
2021/12/05 11:46:29;;;;;;;;;;;4.10;99.90;;;;;;4972643;28;19996;-88
2021/12/05 11:48:57;;;;;;;;;;;4.20;99.90;;;;;;4970005;28;20326;-86
2021/12/05 11:51:25;;;;;;;;;;;4.20;99.90;;;;;;4972182;28;19926;-87
2021/12/05 11:53:52;;;;;;;;;;;4.30;99.90;;;;;;4971600;28;20366;-85
2021/12/05 11:56:23;;;;;;;;;;;4.30;99.90;;;;;;4970920;28;19934;-87
2021/12/05 11:59:07;;;;;;;;;;;4.30;99.90;;;;;;4970122;28;20334;-86
2021/12/05 12:01:35;;;;;;;;;;;4.30;99.90;;;;;;4970726;28;19973;-89
2021/12/05 12:04:01;;;;;;;;;;;4.40;99.90;;;;;;4989786;28;19929;-88
2021/12/05 12:06:26;;;;;;;;;;;4.40;99.90;;;;;;4986507;23;19968;-86
2021/12/05 12:08:52;;;;;;;;;;;4.50;99.90;;;;;;4979450;28;19976;-87
2021/12/05 12:11:18;;;;;;;;;;;4.50;99.90;;;;;;4972979;28;19929;-87
2021/12/05 12:13:43;;;;;;;;;;;4.50;99.90;;;;;;5004944;28;19940;-87
2021/12/05 12:16:13;;;;;;;;;;;4.50;99.90;;;;;;4999675;28;19929;-85
2021/12/05 12:18:51;;;;;;;;;;;4.50;99.90;;;;;;4998662;28;19930;-87
2021/12/05 12:21:26;;;;;;;;;;;4.50;99.90;;;;;;5004746;28;20316;-86
2021/12/05 12:23:57;;;;;;;;;;;4.60;99.90;;;;;;4980827;28;19925;-84
2021/12/05 12:26:23;;;;;;;;;;;4.60;99.90;;;;;;4975857;28;20016;-85
2021/12/05 12:28:48;;;;;;;;;;;4.70;99.90;;;;;;4983817;28;20352;-84
2021/12/05 12:31:17;;;;;;;;;;;4.70;99.90;;;;;;4978300;28;19933;-84
2021/12/05 12:33:51;;;;;;;;;;;4.70;99.90;;;;;;4977787;28;19926;-86
2021/12/05 12:36:29;;;;;;;;;;;4.70;99.90;;;;;;4976858;28;19940;-86
2021/12/05 12:38:55;;;;;;;;;;;4.80;99.90;;;;;;4973776;28;20029;-86
2021/12/05 12:41:22;;;;;;;;;;;4.80;99.90;;;;;;4970260;28;20021;-85
2021/12/05 12:43:55;;;;;;;;;;;4.80;99.90;;;;;;4969704;28;19925;-85
2021/12/05 12:46:36;;;;;;;;;;;4.80;99.90;;;;;;4980035;28;19926;-85
2021/12/05 12:49:14;;;;;;;;;;;4.80;99.90;;;;;;4981312;28;19933;-86
2021/12/05 12:51:42;;;;;;;;;;;4.80;99.90;;;;;;5001146;28;20023;-85
2021/12/05 12:54:09;;;;;;;;;;;4.80;99.90;;;;;;4979683;28;20412;-86
2021/12/05 12:56:39;;;;;;;;;;;4.80;99.90;;;;;;4973321;28;19984;-86
2021/12/05 12:59:48;;;;;;;;;;;4.80;99.90;;;;;;4975738;28;19941;-85
2021/12/05 13:11:44;;;;;;;;;;;3.50;99.90;;;;;;4976010;28;19977;-85
2021/12/05 13:14:12;;;;;;;;;;;3.40;99.90;;;;;;4982594;28;19933;-86
2021/12/05 13:16:41;;;;;;;;;;;6.10;99.90;;;;;;4998203;28;19926;-85
2021/12/05 13:19:13;;;;;;;;;;;4.80;99.90;;;;;;4990685;28;20313;-86
2021/12/05 13:21:42;;;;;;;;;;;4.80;99.90;;;;;;4981888;28;19934;-87
2021/12/05 13:24:27;;;;;;;;;;;4.70;99.90;;;;;;4972752;28;19932;-84
2021/12/05 13:27:03;;;;;;;;;;;4.80;99.90;;;;;;4973609;28;20320;-87
2021/12/05 13:29:48;;;;;;;;;;;4.90;99.90;;;;;;4973671;28;19933;-88
2021/12/05 13:32:22;;;;;;;;;;;5.60;99.90;;;;;;4983389;28;19953;-87
2021/12/05 13:34:54;;;;;;;;;;;4.90;99.90;;;;;;4976447;28;20449;-87
2021/12/05 13:37:36;;;;;;;;;;;4.90;99.90;;;;;;4975383;28;19937;-87
2021/12/05 13:40:13;;;;;;;;;;;4.80;99.90;;;;;;4972432;28;20505;-88
2021/12/05 13:42:42;;;;;;;;;;;5.10;99.90;;;;;;4972421;28;19930;-89
2021/12/05 13:45:08;;;;;;;;;;;5.20;99.90;;;;;;4972287;28;20300;-86
2021/12/05 13:48:01;;;;;;;;;;;5.90;99.90;;;;;;4971972;28;19930;-88
2021/12/05 13:50:47;;;;;;;;;;;5.00;99.90;;;;;;4982713;28;19925;-87
2021/12/05 13:53:36;;;;;;;;;;;5.00;99.90;;;;;;4973310;28;19925;-87
2021/12/05 13:59:38;;;;;;;;;;;5.00;99.90;;;;;;4996659;28;19929;-87
2021/12/05 14:02:17;;;;;;;;;;;5.00;99.90;;;;;;4972805;28;20365;-87
2021/12/05 14:04:43;;;;;;;;;;;5.00;99.90;;;;;;4972139;28;19926;-87
2021/12/05 14:07:10;;;;;;;;;;;4.90;99.90;;;;;;4984356;28;20559;-88
2021/12/05 14:09:54;;;;;;;;;;;5.00;99.90;;;;;;4986763;28;20561;-89
2021/12/05 14:12:30;;;;;;;;;;;3.10;99.90;;;;;;4974179;28;20253;-88
2021/12/05 14:22:02;;;;;;;;;;;4.80;99.90;;;;;;5792479;23;20394;-85
2021/12/05 14:31:53;;;;;;;;;;;4.70;99.90;;;;;;5013580;28;19960;-87
2021/12/05 14:34:45;;;;;;;;;;;4.70;99.90;;;;;;4994975;28;19933;-87
2021/12/05 14:37:36;;;;;;;;;;;4.50;99.90;;;;;;4996051;28;19932;-84
2021/12/05 14:40:09;;;;;;;;;;;4.70;99.90;;;;;;4994433;28;20226;-87
2021/12/05 14:42:36;;;;;;;;;;;4.60;99.90;;;;;;4992201;28;19929;-85
2021/12/05 14:45:20;;;;;;;;;;;4.70;99.90;;;;;;4992631;28;19933;-87
2021/12/05 14:47:59;;;;;;;;;;;4.60;99.90;;;;;;5004550;28;19980;-88
2021/12/05 14:50:26;;;;;;;;;;;4.60;99.90;;;;;;4995157;28;19949;-88
2021/12/05 14:52:54;;;;;;;;;;;6.50;99.90;;;;;;4995510;28;19926;-87
2021/12/05 14:55:31;;;;;;;;;;;4.50;99.90;;;;;;4995057;28;19929;-87
2021/12/05 14:57:58;;;;;;;;;;;4.50;99.90;;;;;;5010635;28;19949;-87
2021/12/05 15:01:02;;;;;;;;;;;4.50;99.90;;;;;;5016660;28;19924;-87
2021/12/05 15:03:29;;;;;;;;;;;4.50;99.90;;;;;;4962337;28;19929;-88
2021/12/05 15:06:35;;;;;;;;;;;4.10;99.90;;;;;;5003406;28;19948;-86
2021/12/05 15:11:36;;;;;;;;;;;4.50;99.90;;;;;;5147625;22;19926;-87
2021/12/05 15:14:17;;;;;;;;;;;4.40;99.90;;;;;;4973136;28;19926;-88
2021/12/05 15:17:04;;;;;;;;;;;3.20;99.90;;;;;;4974369;28;19922;-86
2021/12/05 15:19:47;;;;;;;;;;;4.50;99.90;;;;;;4958842;28;19929;-87
2021/12/05 15:22:13;;;;;;;;;;;4.40;99.90;;;;;;4974713;28;19934;-85
2021/12/05 15:24:54;;;;;;;;;;;5.90;99.90;;;;;;4975151;28;20016;-87
2021/12/05 15:27:23;;;;;;;;;;;4.40;99.90;;;;;;4974180;28;20456;-86
2021/12/05 15:30:00;;;;;;;;;;;4.40;99.90;;;;;;4968596;28;20421;-86
2021/12/05 15:32:49;;;;;;;;;;;4.40;99.90;;;;;;4975203;28;19972;-85
2021/12/05 15:35:17;;;;;;;;;;;3.90;99.90;;;;;;4964482;28;19926;-86
2021/12/05 15:41:44;;;;;;;;;;;3.20;99.90;;;;;;5002657;28;20092;-86
2021/12/05 15:44:28;;;;;;;;;;;4.50;99.90;;;;;;4966953;28;19940;-86
2021/12/05 15:47:14;;;;;;;;;;;3.90;99.90;;;;;;4966270;28;19949;-86
2021/12/05 15:49:41;;;;;;;;;;;4.30;99.90;;;;;;4975720;23;19926;-87
2021/12/05 15:54:43;;;;;;;;;;;4.30;99.90;;;;;;5279100;23;19937;-86
2021/12/05 15:57:13;;;;;;;;;;;4.30;99.90;;;;;;4958350;28;19962;-86
2021/12/05 16:04:56;;;;;;;;;;;4.30;99.90;;;;;;5142027;22;20029;-86
2021/12/05 16:07:26;;;;;;;;;;;4.20;99.90;;;;;;4972218;28;19990;-85
2021/12/05 16:09:52;;;;;;;;;;;4.20;99.90;;;;;;4971540;28;19934;-83
2021/12/05 16:12:19;;;;;;;;;;;4.20;99.90;;;;;;4964079;28;19926;-83
2021/12/05 16:14:46;;;;;;;;;;;4.20;99.90;;;;;;4956658;28;19927;-83
2021/12/05 16:17:27;;;;;;;;;;;4.20;99.90;;;;;;4959796;28;20262;-83
2021/12/05 16:20:01;;;;;;;;;;;4.20;99.90;;;;;;4971411;28;19926;-84
2021/12/05 16:22:26;;;;;;;;;;;4.20;99.90;;;;;;4960941;28;20389;-84
2021/12/05 16:24:52;;;;;;;;;;;4.20;99.90;;;;;;4964157;28;19968;-84
2021/12/05 16:27:27;;;;;;;;;;;4.10;99.90;;;;;;4976309;23;19926;-82
2021/12/05 16:29:52;;;;;;;;;;;4.70;99.90;;;;;;4969846;28;19937;-84
2021/12/05 16:32:18;;;;;;;;;;;4.10;99.90;;;;;;4968813;28;19930;-83
2021/12/05 16:34:48;;;;;;;;;;;4.10;99.90;;;;;;4965708;28;19938;-83
2021/12/05 16:37:14;;;;;;;;;;;4.00;99.90;;;;;;4960271;28;20314;-85
2021/12/05 16:39:42;;;;;;;;;;;4.00;99.90;;;;;;4972023;28;19937;-85
2021/12/05 16:42:13;;;;;;;;;;;4.00;99.90;;;;;;4965804;28;19964;-85
2021/12/05 16:44:40;;;;;;;;;;;4.00;99.90;;;;;;4991071;28;20386;-85
2021/12/05 16:47:08;;;;;;;;;;;4.00;99.90;;;;;;4978498;28;19940;-84
2021/12/05 16:49:35;;;;;;;;;;;3.90;99.90;;;;;;4988806;28;20013;-86
2021/12/05 16:52:03;;;;;;;;;;;3.90;99.90;;;;;;4984895;28;19932;-85
2021/12/05 16:54:32;;;;;;;;;;;3.90;99.90;;;;;;4959796;28;19933;-85
2021/12/05 16:57:02;;;;;;;;;;;3.90;99.90;;;;;;4967659;28;19922;-85
2021/12/05 16:59:32;;;;;;;;;;;3.90;99.90;;;;;;4971161;28;20309;-84
2021/12/05 17:02:07;;;;;;;;;;;3.90;99.90;;;;;;4972116;28;19926;-86
2021/12/05 17:04:43;;;;;;;;;;;3.90;99.90;;;;;;4972112;28;19930;-83
2021/12/05 17:07:13;;;;;;;;;;;3.90;99.90;;;;;;4968035;28;19934;-84
2021/12/05 17:09:41;;;;;;;;;;;3.90;99.90;;;;;;4978226;28;19976;-84
2021/12/05 17:12:26;;;;;;;;;;;3.90;99.90;;;;;;4985482;28;19996;-85
2021/12/05 17:27:59;;;;;;;;;;;3.70;99.90;;;;;;5199976;23;19925;-85
2021/12/05 17:30:25;;;;;;;;;;;4.70;99.90;;;;;;4970044;28;19977;-85
2021/12/05 17:33:06;;;;;;;;;;;3.90;99.90;;;;;;4986334;28;19988;-84
2021/12/05 17:35:44;;;;;;;;;;;3.70;99.90;;;;;;4981281;28;20337;-84
2021/12/05 17:38:28;;;;;;;;;;;2.70;99.90;;;;;;4979497;28;20014;-86
2021/12/05 17:44:17;;;;;;;;;;;4.40;99.90;;;;;;4996827;28;20307;-85
2021/12/05 17:50:20;;;;;;;;;;;3.60;99.90;;;;;;4979306;28;19973;-83
2021/12/05 17:58:52;;;;;;;;;;;3.40;99.90;;;;;;5152550;23;19948;-85
2021/12/05 18:09:15;;;;;;;;;;;3.30;99.90;;;;;;5079286;22;19929;-84
2021/12/05 18:14:09;;;;;;;;;;;3.40;99.90;;;;;;4972422;28;19937;-82
2021/12/05 18:16:35;;;;;;;;;;;3.30;99.90;;;;;;5676173;23;19925;-84
2021/12/05 18:19:04;;;;;;;;;;;3.30;99.90;;;;;;4993283;28;19936;-84
2021/12/05 18:21:36;;;;;;;;;;;3.70;99.90;;;;;;5000812;28;19925;-83
2021/12/05 18:24:09;;;;;;;;;;;3.20;99.90;;;;;;4992918;28;19926;-84
2021/12/05 18:26:36;;;;;;;;;;;3.20;99.90;;;;;;4986801;28;20281;-84
2021/12/05 18:29:01;;;;;;;;;;;3.20;99.90;;;;;;4994569;28;20009;-84
2021/12/05 18:31:27;;;;;;;;;;;3.10;99.90;;;;;;5008930;28;19925;-83
2021/12/05 18:33:55;;;;;;;;;;;3.80;99.90;;;;;;5003674;28;20029;-84
2021/12/05 18:36:21;;;;;;;;;;;3.10;99.90;;;;;;4990410;28;19961;-83
2021/12/05 18:38:48;;;;;;;;;;;3.10;99.90;;;;;;4990034;28;20035;-83
2021/12/05 18:41:15;;;;;;;;;;;3.10;99.90;;;;;;4990651;28;19926;-84
2021/12/05 18:43:42;;;;;;;;;;;3.10;99.90;;;;;;4990462;28;19932;-83
2021/12/05 18:46:09;;;;;;;;;;;3.10;99.90;;;;;;4990335;28;19930;-83
2021/12/05 18:48:35;;;;;;;;;;;3.10;99.90;;;;;;4987467;28;20504;-83
2021/12/05 18:51:01;;;;;;;;;;;3.10;99.90;;;;;;4990745;28;20307;-84
2021/12/05 18:53:27;;;;;;;;;;;3.10;99.90;;;;;;4993333;28;20012;-84
2021/12/05 18:58:29;;;;;;;;;;;3.10;99.90;;;;;;5246919;23;19932;-85
2021/12/05 19:06:35;;;;;;;;;;;3.00;99.90;;;;;;4974158;28;20544;-87
2021/12/05 19:11:47;;;;;;;;;;;3.00;99.90;;;;;;4983375;28;19926;-86
2021/12/05 19:14:18;;;;;;;;;;;3.00;99.90;;;;;;4969477;28;19977;-86
2021/12/05 19:16:45;;;;;;;;;;;2.90;99.90;;;;;;4974063;28;19964;-84
2021/12/05 19:19:11;;;;;;;;;;;2.90;99.90;;;;;;4974113;28;20029;-86
2021/12/05 19:21:37;;;;;;;;;;;2.90;99.90;;;;;;4973601;28;20012;-85
2021/12/05 19:24:03;;;;;;;;;;;2.90;99.90;;;;;;4974250;28;19922;-85
2021/12/05 19:26:29;;;;;;;;;;;2.90;99.90;;;;;;4974099;28;19934;-85
2021/12/05 19:28:54;;;;;;;;;;;2.90;99.90;;;;;;4973101;28;19949;-85
2021/12/05 19:31:20;;;;;;;;;;;2.90;99.90;;;;;;4975063;28;19925;-86
2021/12/05 19:33:45;;;;;;;;;;;2.80;99.90;;;;;;4975100;28;19936;-85
2021/12/05 19:36:14;;;;;;;;;;;2.90;99.90;;;;;;4974539;28;19975;-86
2021/12/05 19:38:43;;;;;;;;;;;2.80;99.90;;;;;;4973899;28;19937;-85
2021/12/05 19:41:18;;;;;;;;;;;2.00;99.90;;;;;;4966620;28;19937;-86
2021/12/05 19:44:02;;;;;;;;;;;2.70;99.90;;;;;;4973752;28;20016;-83
2021/12/05 19:46:29;;;;;;;;;;;2.70;99.90;;;;;;4974123;28;20299;-84
2021/12/05 19:48:56;;;;;;;;;;;3.40;99.90;;;;;;4965524;28;19933;-83
2021/12/05 19:54:07;;;;;;;;;;;2.60;99.90;;;;;;5416960;23;19925;-87
2021/12/05 19:56:33;;;;;;;;;;;2.10;99.90;;;;;;4972807;28;19936;-88
2021/12/05 19:59:13;;;;;;;;;;;2.50;99.90;;;;;;4973046;28;20008;-86
2021/12/05 20:01:39;;;;;;;;;;;2.40;99.90;;;;;;4968254;28;19976;-84
2021/12/05 20:04:05;;;;;;;;;;;2.30;99.90;;;;;;4971980;28;20366;-84
2021/12/05 20:06:31;;;;;;;;;;;2.40;99.90;;;;;;4973573;28;20013;-84
2021/12/05 20:09:16;;;;;;;;;;;2.40;99.90;;;;;;4973666;28;20352;-86
2021/12/05 20:11:42;;;;;;;;;;;2.30;99.90;;;;;;4966430;28;20305;-86
2021/12/05 20:14:08;;;;;;;;;;;2.20;99.90;;;;;;4973571;28;20481;-86
2021/12/05 20:29:52;;;;;;;;;;;2.10;99.90;;;;;;5537533;23;19925;-82
2021/12/05 20:32:18;;;;;;;;;;;2.00;99.90;;;;;;4991763;28;19932;-85
2021/12/05 20:34:44;;;;;;;;;;;2.60;99.90;;;;;;4992119;28;19932;-86
2021/12/05 20:37:10;;;;;;;;;;;2.00;99.90;;;;;;4992732;28;20061;-87
2021/12/05 20:39:36;;;;;;;;;;;1.90;99.90;;;;;;4991035;28;19933;-84
2021/12/05 20:42:02;;;;;;;;;;;1.90;99.90;;;;;;4989927;28;20270;-85
2021/12/05 20:44:29;;;;;;;;;;;2.60;99.90;;;;;;4990415;28;20127;-85
2021/12/05 20:46:56;;;;;;;;;;;1.80;99.90;;;;;;4991125;28;19932;-84
2021/12/05 20:49:24;;;;;;;;;;;1.80;99.90;;;;;;4988342;28;20020;-84
2021/12/05 20:51:50;;;;;;;;;;;1.80;99.90;;;;;;4988185;28;19930;-83
2021/12/05 20:54:16;;;;;;;;;;;1.80;99.90;;;;;;4988693;28;19926;-83
2021/12/05 20:56:42;;;;;;;;;;;3.10;99.90;;;;;;4975906;28;19953;-84
2021/12/05 20:59:08;;;;;;;;;;;1.80;99.90;;;;;;4988121;28;19934;-84
2021/12/05 21:01:35;;;;;;;;;;;1.80;99.90;;;;;;4993839;28;19932;-84
2021/12/05 21:04:01;;;;;;;;;;;1.80;99.90;;;;;;4994538;28;19929;-84
2021/12/05 21:52:11;;;;;;;;;;;-0.10;99.90;;;;;;4983937;28;19933;-81
2021/12/05 21:54:36;;;;;;;;;;;1.60;99.90;;;;;;4985183;28;20314;-80
2021/12/05 21:57:05;;;;;;;;;;;2.00;99.90;;;;;;5118181;23;19912;-81
2021/12/05 21:59:31;;;;;;;;;;;1.50;99.90;;;;;;4985252;28;20578;-81
2021/12/05 22:01:57;;;;;;;;;;;1.50;99.90;;;;;;4985409;28;20033;-81
2021/12/05 22:04:22;;;;;;;;;;;1.50;99.90;;;;;;4985477;28;19929;-82
2021/12/05 22:06:48;;;;;;;;;;;1.50;99.90;;;;;;4987942;28;19930;-80
2021/12/05 22:09:14;;;;;;;;;;;1.50;99.90;;;;;;5144380;23;19928;-81
2021/12/05 22:11:40;;;;;;;;;;;1.50;99.90;;;;;;4998685;28;19921;-81
2021/12/05 22:14:06;;;;;;;;;;;2.70;99.90;;;;;;4995145;28;19932;-80
2021/12/05 22:45:01;;;;;;;;;;;1.40;99.90;;;;;;6074229;23;20203;-81
2021/12/05 22:47:27;;;;;;;;;;;1.40;99.90;;;;;;4997413;28;19948;-81
2021/12/05 22:49:52;;;;;;;;;;;1.50;99.90;;;;;;4996840;28;19939;-80
2021/12/05 22:52:18;;;;;;;;;;;1.50;99.90;;;;;;4993444;28;19926;-81
